sensor_id;sensor_type;location;lat;lon;timestamp;temperature;humidity
27645;DHT22;15054;57.152;-2.118;2022-07-06T00:01:20;12.90;99.90
27645;DHT22;15054;57.152;-2.118;2022-07-06T00:03:47;12.80;99.90
27645;DHT22;15054;57.152;-2.118;2022-07-06T00:06:20;12.90;99.90
27645;DHT22;15054;57.152;-2.118;2022-07-06T00:08:48;12.90;99.90
27645;DHT22;15054;57.152;-2.118;2022-07-06T00:11:15;12.90;99.90
27645;DHT22;15054;57.152;-2.118;2022-07-06T00:13:42;13.00;99.90
27645;DHT22;15054;57.152;-2.118;2022-07-06T00:16:10;13.00;99.90
27645;DHT22;15054;57.152;-2.118;2022-07-06T00:18:37;13.00;99.90
27645;DHT22;15054;57.152;-2.118;2022-07-06T00:21:04;13.00;99.90
27645;DHT22;15054;57.152;-2.118;2022-07-06T00:23:31;13.00;99.90
27645;DHT22;15054;57.152;-2.118;2022-07-06T00:25:58;13.00;99.90
27645;DHT22;15054;57.152;-2.118;2022-07-06T00:28:25;12.90;99.90
27645;DHT22;15054;57.152;-2.118;2022-07-06T00:30:53;12.90;99.90
27645;DHT22;15054;57.152;-2.118;2022-07-06T00:33:21;12.90;99.90
27645;DHT22;15054;57.152;-2.118;2022-07-06T00:35:48;12.80;99.90
27645;DHT22;15054;57.152;-2.118;2022-07-06T00:38:16;12.80;99.90
27645;DHT22;15054;57.152;-2.118;2022-07-06T00:40:44;12.80;99.90
27645;DHT22;15054;57.152;-2.118;2022-07-06T00:43:11;12.80;99.90
27645;DHT22;15054;57.152;-2.118;2022-07-06T00:45:38;12.80;99.90
27645;DHT22;15054;57.152;-2.118;2022-07-06T00:48:06;12.80;99.90
27645;DHT22;15054;57.152;-2.118;2022-07-06T00:50:33;12.80;99.90
27645;DHT22;15054;57.152;-2.118;2022-07-06T00:53:04;12.80;99.90
27645;DHT22;15054;57.152;-2.118;2022-07-06T00:55:34;12.70;99.90
27645;DHT22;15054;57.152;-2.118;2022-07-06T00:58:03;12.80;99.90
27645;DHT22;15054;57.152;-2.118;2022-07-06T01:00:31;12.80;99.90
27645;DHT22;15054;57.152;-2.118;2022-07-06T01:02:59;12.80;99.90
27645;DHT22;15054;57.152;-2.118;2022-07-06T01:05:26;12.80;99.90
27645;DHT22;15054;57.152;-2.118;2022-07-06T01:07:53;12.80;99.90
27645;DHT22;15054;57.152;-2.118;2022-07-06T01:10:21;12.80;99.90
27645;DHT22;15054;57.152;-2.118;2022-07-06T01:12:49;12.80;99.90
27645;DHT22;15054;57.152;-2.118;2022-07-06T01:15:21;12.70;99.90
27645;DHT22;15054;57.152;-2.118;2022-07-06T01:17:51;12.70;99.90
27645;DHT22;15054;57.152;-2.118;2022-07-06T01:20:24;12.60;99.90
27645;DHT22;15054;57.152;-2.118;2022-07-06T01:22:54;12.60;99.90
27645;DHT22;15054;57.152;-2.118;2022-07-06T01:25:22;12.60;99.90
27645;DHT22;15054;57.152;-2.118;2022-07-06T01:27:49;12.60;99.90
27645;DHT22;15054;57.152;-2.118;2022-07-06T01:30:18;12.60;99.90
27645;DHT22;15054;57.152;-2.118;2022-07-06T01:32:46;12.60;99.90
27645;DHT22;15054;57.152;-2.118;2022-07-06T01:35:15;12.60;99.90
27645;DHT22;15054;57.152;-2.118;2022-07-06T01:37:43;12.50;99.90
27645;DHT22;15054;57.152;-2.118;2022-07-06T01:40:11;12.60;99.90
27645;DHT22;15054;57.152;-2.118;2022-07-06T01:42:39;12.50;99.90
27645;DHT22;15054;57.152;-2.118;2022-07-06T01:45:07;12.50;99.90
27645;DHT22;15054;57.152;-2.118;2022-07-06T01:47:35;12.50;99.90
27645;DHT22;15054;57.152;-2.118;2022-07-06T01:50:06;12.50;99.90
27645;DHT22;15054;57.152;-2.118;2022-07-06T01:52:37;12.50;99.90
27645;DHT22;15054;57.152;-2.118;2022-07-06T01:55:05;12.50;99.90
27645;DHT22;15054;57.152;-2.118;2022-07-06T01:57:34;12.50;99.90
27645;DHT22;15054;57.152;-2.118;2022-07-06T02:00:03;12.50;99.90
27645;DHT22;15054;57.152;-2.118;2022-07-06T02:02:38;12.40;99.90
27645;DHT22;15054;57.152;-2.118;2022-07-06T02:05:08;12.40;99.90
27645;DHT22;15054;57.152;-2.118;2022-07-06T02:07:35;12.40;99.90
27645;DHT22;15054;57.152;-2.118;2022-07-06T02:10:03;12.40;99.90
27645;DHT22;15054;57.152;-2.118;2022-07-06T02:12:31;12.40;99.90
27645;DHT22;15054;57.152;-2.118;2022-07-06T02:14:58;12.40;99.90
27645;DHT22;15054;57.152;-2.118;2022-07-06T02:17:25;12.40;99.90
27645;DHT22;15054;57.152;-2.118;2022-07-06T02:19:52;12.40;99.90
27645;DHT22;15054;57.152;-2.118;2022-07-06T02:22:38;12.40;99.90
27645;DHT22;15054;57.152;-2.118;2022-07-06T02:25:07;12.40;99.90
27645;DHT22;15054;57.152;-2.118;2022-07-06T02:27:34;12.40;99.90
27645;DHT22;15054;57.152;-2.118;2022-07-06T02:30:05;12.40;99.90
27645;DHT22;15054;57.152;-2.118;2022-07-06T02:32:34;12.50;99.90
27645;DHT22;15054;57.152;-2.118;2022-07-06T02:35:02;12.40;99.90
27645;DHT22;15054;57.152;-2.118;2022-07-06T02:37:29;12.40;99.90
27645;DHT22;15054;57.152;-2.118;2022-07-06T02:39:56;12.40;99.90
27645;DHT22;15054;57.152;-2.118;2022-07-06T02:42:25;12.40;99.90
27645;DHT22;15054;57.152;-2.118;2022-07-06T02:44:53;12.50;99.90
27645;DHT22;15054;57.152;-2.118;2022-07-06T02:47:22;12.50;99.90
27645;DHT22;15054;57.152;-2.118;2022-07-06T02:49:49;12.50;99.90
27645;DHT22;15054;57.152;-2.118;2022-07-06T02:52:16;12.50;99.90
27645;DHT22;15054;57.152;-2.118;2022-07-06T02:54:44;12.50;99.90
27645;DHT22;15054;57.152;-2.118;2022-07-06T02:57:11;12.50;99.90
27645;DHT22;15054;57.152;-2.118;2022-07-06T02:59:38;12.50;99.90
27645;DHT22;15054;57.152;-2.118;2022-07-06T03:02:07;12.40;99.90
27645;DHT22;15054;57.152;-2.118;2022-07-06T03:04:34;12.40;99.90
27645;DHT22;15054;57.152;-2.118;2022-07-06T03:07:02;12.50;99.90
27645;DHT22;15054;57.152;-2.118;2022-07-06T03:09:30;12.50;99.90
27645;DHT22;15054;57.152;-2.118;2022-07-06T03:11:58;12.50;99.90
27645;DHT22;15054;57.152;-2.118;2022-07-06T03:14:26;12.50;99.90
27645;DHT22;15054;57.152;-2.118;2022-07-06T03:16:54;12.50;99.90
27645;DHT22;15054;57.152;-2.118;2022-07-06T03:19:21;12.50;99.90
27645;DHT22;15054;57.152;-2.118;2022-07-06T03:21:49;12.60;99.90
27645;DHT22;15054;57.152;-2.118;2022-07-06T03:24:16;12.60;99.90
27645;DHT22;15054;57.152;-2.118;2022-07-06T03:26:43;12.60;99.90
27645;DHT22;15054;57.152;-2.118;2022-07-06T03:29:13;12.70;99.90
27645;DHT22;15054;57.152;-2.118;2022-07-06T03:31:40;12.70;99.90
27645;DHT22;15054;57.152;-2.118;2022-07-06T03:34:07;12.70;99.90
27645;DHT22;15054;57.152;-2.118;2022-07-06T03:36:36;12.80;99.90
27645;DHT22;15054;57.152;-2.118;2022-07-06T03:39:07;12.90;99.90
27645;DHT22;15054;57.152;-2.118;2022-07-06T03:41:36;13.00;99.90
27645;DHT22;15054;57.152;-2.118;2022-07-06T03:44:04;13.10;99.90
27645;DHT22;15054;57.152;-2.118;2022-07-06T03:46:31;13.20;99.90
27645;DHT22;15054;57.152;-2.118;2022-07-06T03:48:59;13.20;99.90
27645;DHT22;15054;57.152;-2.118;2022-07-06T03:51:29;13.30;99.90
27645;DHT22;15054;57.152;-2.118;2022-07-06T03:53:57;13.40;99.90
27645;DHT22;15054;57.152;-2.118;2022-07-06T03:56:24;13.50;99.90
27645;DHT22;15054;57.152;-2.118;2022-07-06T03:59:05;13.50;99.90
27645;DHT22;15054;57.152;-2.118;2022-07-06T04:01:36;13.60;99.90
27645;DHT22;15054;57.152;-2.118;2022-07-06T04:04:05;13.60;99.90
27645;DHT22;15054;57.152;-2.118;2022-07-06T04:06:34;13.60;99.90
27645;DHT22;15054;57.152;-2.118;2022-07-06T04:09:04;13.70;99.90
27645;DHT22;15054;57.152;-2.118;2022-07-06T04:11:31;13.70;99.90
27645;DHT22;15054;57.152;-2.118;2022-07-06T04:13:58;13.70;99.90
27645;DHT22;15054;57.152;-2.118;2022-07-06T04:16:26;13.80;99.90
27645;DHT22;15054;57.152;-2.118;2022-07-06T04:18:53;13.80;99.90
27645;DHT22;15054;57.152;-2.118;2022-07-06T04:21:21;13.90;99.90
27645;DHT22;15054;57.152;-2.118;2022-07-06T04:23:48;13.90;99.90
27645;DHT22;15054;57.152;-2.118;2022-07-06T04:26:16;13.90;99.90
27645;DHT22;15054;57.152;-2.118;2022-07-06T04:28:43;13.90;99.90
27645;DHT22;15054;57.152;-2.118;2022-07-06T04:31:10;14.00;99.90
27645;DHT22;15054;57.152;-2.118;2022-07-06T04:33:44;14.00;99.90
27645;DHT22;15054;57.152;-2.118;2022-07-06T04:36:11;14.10;99.90
27645;DHT22;15054;57.152;-2.118;2022-07-06T04:38:42;14.20;99.90
27645;DHT22;15054;57.152;-2.118;2022-07-06T04:41:11;14.20;99.90
27645;DHT22;15054;57.152;-2.118;2022-07-06T04:43:38;14.30;99.90
27645;DHT22;15054;57.152;-2.118;2022-07-06T04:46:06;14.30;99.90
27645;DHT22;15054;57.152;-2.118;2022-07-06T04:48:39;14.30;99.90
27645;DHT22;15054;57.152;-2.118;2022-07-06T04:51:11;14.30;99.90
27645;DHT22;15054;57.152;-2.118;2022-07-06T04:53:40;14.40;99.90
27645;DHT22;15054;57.152;-2.118;2022-07-06T04:56:07;14.50;99.90
27645;DHT22;15054;57.152;-2.118;2022-07-06T04:58:38;14.50;99.90
27645;DHT22;15054;57.152;-2.118;2022-07-06T05:01:07;14.60;99.90
27645;DHT22;15054;57.152;-2.118;2022-07-06T05:03:35;14.70;99.90
27645;DHT22;15054;57.152;-2.118;2022-07-06T05:06:08;14.70;99.90
27645;DHT22;15054;57.152;-2.118;2022-07-06T05:08:35;14.70;99.90
27645;DHT22;15054;57.152;-2.118;2022-07-06T05:11:03;14.70;99.90
27645;DHT22;15054;57.152;-2.118;2022-07-06T05:13:32;14.80;99.90
27645;DHT22;15054;57.152;-2.118;2022-07-06T05:15:59;14.80;99.90
27645;DHT22;15054;57.152;-2.118;2022-07-06T05:18:26;14.90;99.90
27645;DHT22;15054;57.152;-2.118;2022-07-06T05:20:54;14.90;99.90
27645;DHT22;15054;57.152;-2.118;2022-07-06T05:23:22;14.90;99.90
27645;DHT22;15054;57.152;-2.118;2022-07-06T05:25:50;14.90;99.90
27645;DHT22;15054;57.152;-2.118;2022-07-06T05:28:17;15.00;99.90
27645;DHT22;15054;57.152;-2.118;2022-07-06T05:30:45;15.00;99.90
27645;DHT22;15054;57.152;-2.118;2022-07-06T05:33:12;15.00;99.90
27645;DHT22;15054;57.152;-2.118;2022-07-06T05:35:40;15.10;99.90
27645;DHT22;15054;57.152;-2.118;2022-07-06T05:38:20;15.10;99.90
27645;DHT22;15054;57.152;-2.118;2022-07-06T05:40:49;15.10;99.90
27645;DHT22;15054;57.152;-2.118;2022-07-06T05:43:17;15.10;99.90
27645;DHT22;15054;57.152;-2.118;2022-07-06T05:45:45;15.20;99.90
27645;DHT22;15054;57.152;-2.118;2022-07-06T05:48:14;15.20;99.90
27645;DHT22;15054;57.152;-2.118;2022-07-06T05:51:01;15.30;99.90
27645;DHT22;15054;57.152;-2.118;2022-07-06T05:53:28;15.30;99.90
27645;DHT22;15054;57.152;-2.118;2022-07-06T05:55:56;15.20;99.90
27645;DHT22;15054;57.152;-2.118;2022-07-06T05:58:25;15.20;99.90
27645;DHT22;15054;57.152;-2.118;2022-07-06T06:00:55;15.10;99.90
27645;DHT22;15054;57.152;-2.118;2022-07-06T06:03:22;15.10;99.90
27645;DHT22;15054;57.152;-2.118;2022-07-06T06:05:50;15.00;99.90
27645;DHT22;15054;57.152;-2.118;2022-07-06T06:08:19;15.00;99.90
27645;DHT22;15054;57.152;-2.118;2022-07-06T06:10:49;15.00;99.90
27645;DHT22;15054;57.152;-2.118;2022-07-06T06:13:19;15.00;99.90
27645;DHT22;15054;57.152;-2.118;2022-07-06T06:15:47;15.00;99.90
27645;DHT22;15054;57.152;-2.118;2022-07-06T06:18:15;14.90;99.90
27645;DHT22;15054;57.152;-2.118;2022-07-06T06:20:46;15.00;99.90
27645;DHT22;15054;57.152;-2.118;2022-07-06T06:23:13;14.90;99.90
27645;DHT22;15054;57.152;-2.118;2022-07-06T06:25:41;14.90;99.90
27645;DHT22;15054;57.152;-2.118;2022-07-06T06:28:10;14.90;99.90
27645;DHT22;15054;57.152;-2.118;2022-07-06T06:30:39;15.00;99.90
27645;DHT22;15054;57.152;-2.118;2022-07-06T06:33:18;15.00;99.90
27645;DHT22;15054;57.152;-2.118;2022-07-06T06:35:47;15.00;99.90
27645;DHT22;15054;57.152;-2.118;2022-07-06T06:38:16;15.00;99.90
27645;DHT22;15054;57.152;-2.118;2022-07-06T06:40:44;15.00;99.90
27645;DHT22;15054;57.152;-2.118;2022-07-06T06:43:12;15.00;99.90
27645;DHT22;15054;57.152;-2.118;2022-07-06T06:45:55;15.00;99.90
27645;DHT22;15054;57.152;-2.118;2022-07-06T06:48:22;15.10;99.90
27645;DHT22;15054;57.152;-2.118;2022-07-06T06:50:49;15.10;99.90
27645;DHT22;15054;57.152;-2.118;2022-07-06T06:53:17;15.00;99.90
27645;DHT22;15054;57.152;-2.118;2022-07-06T06:55:44;15.10;99.90
27645;DHT22;15054;57.152;-2.118;2022-07-06T06:58:14;15.00;99.90
27645;DHT22;15054;57.152;-2.118;2022-07-06T07:00:41;15.00;99.90
27645;DHT22;15054;57.152;-2.118;2022-07-06T07:03:11;14.90;99.90
27645;DHT22;15054;57.152;-2.118;2022-07-06T07:05:38;14.90;99.90
27645;DHT22;15054;57.152;-2.118;2022-07-06T07:08:05;14.90;99.90
27645;DHT22;15054;57.152;-2.118;2022-07-06T07:10:32;14.90;99.90
27645;DHT22;15054;57.152;-2.118;2022-07-06T07:13:00;14.80;99.90
27645;DHT22;15054;57.152;-2.118;2022-07-06T07:15:29;14.80;99.90
27645;DHT22;15054;57.152;-2.118;2022-07-06T07:17:58;14.80;99.90
27645;DHT22;15054;57.152;-2.118;2022-07-06T07:20:26;14.80;99.90
27645;DHT22;15054;57.152;-2.118;2022-07-06T07:22:53;14.70;99.90
27645;DHT22;15054;57.152;-2.118;2022-07-06T07:25:20;14.80;99.90
27645;DHT22;15054;57.152;-2.118;2022-07-06T07:27:48;14.80;99.90
27645;DHT22;15054;57.152;-2.118;2022-07-06T07:30:15;14.80;99.90
27645;DHT22;15054;57.152;-2.118;2022-07-06T07:32:43;14.80;99.90
27645;DHT22;15054;57.152;-2.118;2022-07-06T07:35:10;14.90;99.90
27645;DHT22;15054;57.152;-2.118;2022-07-06T07:37:38;14.90;99.90
27645;DHT22;15054;57.152;-2.118;2022-07-06T07:40:05;15.00;99.90
27645;DHT22;15054;57.152;-2.118;2022-07-06T07:42:33;15.00;99.90
27645;DHT22;15054;57.152;-2.118;2022-07-06T07:45:00;15.10;99.90
27645;DHT22;15054;57.152;-2.118;2022-07-06T07:47:28;15.10;99.90
27645;DHT22;15054;57.152;-2.118;2022-07-06T07:49:55;15.10;99.90
27645;DHT22;15054;57.152;-2.118;2022-07-06T07:52:22;15.10;99.90
27645;DHT22;15054;57.152;-2.118;2022-07-06T07:54:49;15.10;99.90
27645;DHT22;15054;57.152;-2.118;2022-07-06T07:57:34;15.10;99.90
27645;DHT22;15054;57.152;-2.118;2022-07-06T08:00:03;15.10;99.90
27645;DHT22;15054;57.152;-2.118;2022-07-06T08:02:37;15.10;99.90
27645;DHT22;15054;57.152;-2.118;2022-07-06T08:05:06;15.10;99.90
27645;DHT22;15054;57.152;-2.118;2022-07-06T08:07:33;15.20;99.90
27645;DHT22;15054;57.152;-2.118;2022-07-06T08:10:00;15.20;99.90
27645;DHT22;15054;57.152;-2.118;2022-07-06T08:12:28;15.20;99.90
27645;DHT22;15054;57.152;-2.118;2022-07-06T08:14:55;15.30;99.90
27645;DHT22;15054;57.152;-2.118;2022-07-06T08:17:23;15.40;99.90
27645;DHT22;15054;57.152;-2.118;2022-07-06T08:19:50;15.50;99.90
27645;DHT22;15054;57.152;-2.118;2022-07-06T08:22:18;15.60;99.90
27645;DHT22;15054;57.152;-2.118;2022-07-06T08:24:45;15.60;99.90
27645;DHT22;15054;57.152;-2.118;2022-07-06T08:27:13;15.60;99.90
27645;DHT22;15054;57.152;-2.118;2022-07-06T08:29:40;15.60;99.90
27645;DHT22;15054;57.152;-2.118;2022-07-06T08:32:10;15.50;99.90
27645;DHT22;15054;57.152;-2.118;2022-07-06T08:34:51;15.50;99.90
27645;DHT22;15054;57.152;-2.118;2022-07-06T08:37:19;15.50;99.90
27645;DHT22;15054;57.152;-2.118;2022-07-06T08:39:47;15.50;99.90
27645;DHT22;15054;57.152;-2.118;2022-07-06T08:42:16;15.60;99.90
27645;DHT22;15054;57.152;-2.118;2022-07-06T08:44:43;15.70;99.90
27645;DHT22;15054;57.152;-2.118;2022-07-06T08:47:12;15.80;99.90
27645;DHT22;15054;57.152;-2.118;2022-07-06T08:49:43;15.90;99.90
27645;DHT22;15054;57.152;-2.118;2022-07-06T08:52:11;15.90;99.90
27645;DHT22;15054;57.152;-2.118;2022-07-06T08:54:40;16.00;99.90
27645;DHT22;15054;57.152;-2.118;2022-07-06T08:57:07;16.10;99.90
27645;DHT22;15054;57.152;-2.118;2022-07-06T08:59:34;16.20;99.90
27645;DHT22;15054;57.152;-2.118;2022-07-06T09:02:03;16.40;99.90
27645;DHT22;15054;57.152;-2.118;2022-07-06T09:04:33;16.50;99.90
27645;DHT22;15054;57.152;-2.118;2022-07-06T09:07:02;16.60;99.90
27645;DHT22;15054;57.152;-2.118;2022-07-06T09:09:30;16.60;99.90
27645;DHT22;15054;57.152;-2.118;2022-07-06T09:11:59;16.60;99.90
27645;DHT22;15054;57.152;-2.118;2022-07-06T09:14:30;16.60;99.90
27645;DHT22;15054;57.152;-2.118;2022-07-06T09:17:05;16.50;99.90
27645;DHT22;15054;57.152;-2.118;2022-07-06T09:19:50;16.50;99.90
27645;DHT22;15054;57.152;-2.118;2022-07-06T09:22:29;16.50;99.90
27645;DHT22;15054;57.152;-2.118;2022-07-06T09:25:17;16.60;99.90
27645;DHT22;15054;57.152;-2.118;2022-07-06T09:27:47;16.80;99.90
27645;DHT22;15054;57.152;-2.118;2022-07-06T09:30:17;16.80;99.90
27645;DHT22;15054;57.152;-2.118;2022-07-06T09:33:02;16.90;99.90
27645;DHT22;15054;57.152;-2.118;2022-07-06T09:35:36;17.00;99.90
27645;DHT22;15054;57.152;-2.118;2022-07-06T09:38:13;17.00;99.90
27645;DHT22;15054;57.152;-2.118;2022-07-06T09:40:44;17.00;99.90
27645;DHT22;15054;57.152;-2.118;2022-07-06T09:45:47;17.00;99.90
27645;DHT22;15054;57.152;-2.118;2022-07-06T09:48:17;17.10;99.90
27645;DHT22;15054;57.152;-2.118;2022-07-06T09:50:49;17.10;99.90
27645;DHT22;15054;57.152;-2.118;2022-07-06T09:53:21;17.10;99.90
27645;DHT22;15054;57.152;-2.118;2022-07-06T09:55:52;17.20;99.90
27645;DHT22;15054;57.152;-2.118;2022-07-06T09:58:21;17.30;99.90
27645;DHT22;15054;57.152;-2.118;2022-07-06T10:01:09;17.40;99.90
27645;DHT22;15054;57.152;-2.118;2022-07-06T10:03:38;17.50;99.90
27645;DHT22;15054;57.152;-2.118;2022-07-06T10:06:05;17.60;99.90
27645;DHT22;15054;57.152;-2.118;2022-07-06T10:08:33;17.70;99.90
27645;DHT22;15054;57.152;-2.118;2022-07-06T10:11:03;17.80;99.90
27645;DHT22;15054;57.152;-2.118;2022-07-06T10:13:31;17.90;99.90
27645;DHT22;15054;57.152;-2.118;2022-07-06T10:16:01;18.10;99.90
27645;DHT22;15054;57.152;-2.118;2022-07-06T10:18:29;18.30;99.90
27645;DHT22;15054;57.152;-2.118;2022-07-06T10:20:57;18.40;99.90
27645;DHT22;15054;57.152;-2.118;2022-07-06T10:23:26;18.50;99.90
27645;DHT22;15054;57.152;-2.118;2022-07-06T10:25:56;18.60;99.90
27645;DHT22;15054;57.152;-2.118;2022-07-06T10:28:25;18.70;99.90
27645;DHT22;15054;57.152;-2.118;2022-07-06T10:30:54;18.80;99.90
27645;DHT22;15054;57.152;-2.118;2022-07-06T10:33:22;18.90;99.90
27645;DHT22;15054;57.152;-2.118;2022-07-06T10:35:56;18.80;99.90
27645;DHT22;15054;57.152;-2.118;2022-07-06T10:38:33;18.70;99.90
27645;DHT22;15054;57.152;-2.118;2022-07-06T10:41:08;18.60;99.90
27645;DHT22;15054;57.152;-2.118;2022-07-06T10:43:44;18.60;99.90
27645;DHT22;15054;57.152;-2.118;2022-07-06T10:46:16;18.60;99.90
27645;DHT22;15054;57.152;-2.118;2022-07-06T10:48:47;18.50;99.90
27645;DHT22;15054;57.152;-2.118;2022-07-06T10:51:25;18.50;99.90
27645;DHT22;15054;57.152;-2.118;2022-07-06T10:54:02;18.50;99.90
27645;DHT22;15054;57.152;-2.118;2022-07-06T10:57:09;18.60;99.90
27645;DHT22;15054;57.152;-2.118;2022-07-06T10:59:37;18.80;99.90
27645;DHT22;15054;57.152;-2.118;2022-07-06T11:02:18;18.90;99.90
27645;DHT22;15054;57.152;-2.118;2022-07-06T11:04:47;19.20;99.90
27645;DHT22;15054;57.152;-2.118;2022-07-06T11:07:17;19.50;99.90
27645;DHT22;15054;57.152;-2.118;2022-07-06T11:09:55;19.70;99.90
27645;DHT22;15054;57.152;-2.118;2022-07-06T11:12:23;19.90;99.90
27645;DHT22;15054;57.152;-2.118;2022-07-06T11:14:51;19.90;99.90
27645;DHT22;15054;57.152;-2.118;2022-07-06T11:17:22;20.00;99.90
27645;DHT22;15054;57.152;-2.118;2022-07-06T11:20:08;20.10;99.90
27645;DHT22;15054;57.152;-2.118;2022-07-06T11:22:38;20.30;99.90
27645;DHT22;15054;57.152;-2.118;2022-07-06T11:25:06;20.40;99.90
27645;DHT22;15054;57.152;-2.118;2022-07-06T11:27:37;20.60;99.90
27645;DHT22;15054;57.152;-2.118;2022-07-06T11:30:07;20.70;99.90
27645;DHT22;15054;57.152;-2.118;2022-07-06T11:32:40;20.60;99.90
27645;DHT22;15054;57.152;-2.118;2022-07-06T11:35:08;20.60;99.90
27645;DHT22;15054;57.152;-2.118;2022-07-06T11:37:36;20.50;99.90
27645;DHT22;15054;57.152;-2.118;2022-07-06T11:40:07;20.40;99.90
27645;DHT22;15054;57.152;-2.118;2022-07-06T11:42:34;20.40;99.90
27645;DHT22;15054;57.152;-2.118;2022-07-06T11:45:03;20.30;99.90
27645;DHT22;15054;57.152;-2.118;2022-07-06T11:47:31;20.20;99.90
27645;DHT22;15054;57.152;-2.118;2022-07-06T11:50:00;20.10;99.90
27645;DHT22;15054;57.152;-2.118;2022-07-06T11:52:32;20.00;99.90
27645;DHT22;15054;57.152;-2.118;2022-07-06T11:54:59;19.90;99.90
27645;DHT22;15054;57.152;-2.118;2022-07-06T11:57:33;19.80;99.90
27645;DHT22;15054;57.152;-2.118;2022-07-06T12:00:01;19.70;99.90
27645;DHT22;15054;57.152;-2.118;2022-07-06T12:02:38;19.70;99.90
27645;DHT22;15054;57.152;-2.118;2022-07-06T12:05:05;19.80;99.90
27645;DHT22;15054;57.152;-2.118;2022-07-06T12:07:33;19.80;99.90
27645;DHT22;15054;57.152;-2.118;2022-07-06T12:10:00;19.80;99.90
27645;DHT22;15054;57.152;-2.118;2022-07-06T12:12:27;19.70;99.90
27645;DHT22;15054;57.152;-2.118;2022-07-06T12:14:55;19.70;99.90
27645;DHT22;15054;57.152;-2.118;2022-07-06T12:17:22;19.80;99.90
27645;DHT22;15054;57.152;-2.118;2022-07-06T12:19:54;19.90;99.90
27645;DHT22;15054;57.152;-2.118;2022-07-06T12:22:27;20.00;99.90
27645;DHT22;15054;57.152;-2.118;2022-07-06T12:24:59;20.00;99.90
27645;DHT22;15054;57.152;-2.118;2022-07-06T12:27:33;19.90;99.90
27645;DHT22;15054;57.152;-2.118;2022-07-06T12:30:11;20.00;99.90
27645;DHT22;15054;57.152;-2.118;2022-07-06T12:32:41;20.10;99.90
27645;DHT22;15054;57.152;-2.118;2022-07-06T12:35:12;20.30;99.90
27645;DHT22;15054;57.152;-2.118;2022-07-06T12:37:55;20.40;99.90
27645;DHT22;15054;57.152;-2.118;2022-07-06T12:40:27;20.50;99.90
27645;DHT22;15054;57.152;-2.118;2022-07-06T12:42:55;20.50;99.90
27645;DHT22;15054;57.152;-2.118;2022-07-06T12:45:31;20.50;99.90
27645;DHT22;15054;57.152;-2.118;2022-07-06T12:48:03;20.60;99.90
27645;DHT22;15054;57.152;-2.118;2022-07-06T12:50:40;20.60;99.90
27645;DHT22;15054;57.152;-2.118;2022-07-06T12:53:49;20.60;99.90
27645;DHT22;15054;57.152;-2.118;2022-07-06T12:56:17;20.50;99.90
27645;DHT22;15054;57.152;-2.118;2022-07-06T12:58:57;20.50;99.90
27645;DHT22;15054;57.152;-2.118;2022-07-06T13:01:25;20.50;99.90
27645;DHT22;15054;57.152;-2.118;2022-07-06T13:03:56;20.60;99.90
27645;DHT22;15054;57.152;-2.118;2022-07-06T13:06:32;20.50;99.90
27645;DHT22;15054;57.152;-2.118;2022-07-06T13:09:00;20.50;99.90
27645;DHT22;15054;57.152;-2.118;2022-07-06T13:11:27;20.50;99.90
27645;DHT22;15054;57.152;-2.118;2022-07-06T13:13:55;20.60;99.90
27645;DHT22;15054;57.152;-2.118;2022-07-06T13:16:22;20.60;99.90
27645;DHT22;15054;57.152;-2.118;2022-07-06T13:18:51;20.70;99.90
27645;DHT22;15054;57.152;-2.118;2022-07-06T13:21:18;20.80;99.90
27645;DHT22;15054;57.152;-2.118;2022-07-06T13:23:46;20.90;99.90
27645;DHT22;15054;57.152;-2.118;2022-07-06T13:26:14;21.00;99.90
27645;DHT22;15054;57.152;-2.118;2022-07-06T13:28:46;21.40;99.90
27645;DHT22;15054;57.152;-2.118;2022-07-06T13:31:19;21.50;99.90
27645;DHT22;15054;57.152;-2.118;2022-07-06T13:33:50;21.40;99.90
27645;DHT22;15054;57.152;-2.118;2022-07-06T13:36:19;21.50;99.90
27645;DHT22;15054;57.152;-2.118;2022-07-06T13:38:51;21.60;99.90
27645;DHT22;15054;57.152;-2.118;2022-07-06T13:41:24;21.80;99.90
27645;DHT22;15054;57.152;-2.118;2022-07-06T13:43:54;22.40;99.90
27645;DHT22;15054;57.152;-2.118;2022-07-06T13:46:33;22.60;99.90
27645;DHT22;15054;57.152;-2.118;2022-07-06T13:49:06;22.80;99.90
27645;DHT22;15054;57.152;-2.118;2022-07-06T13:51:34;23.30;99.90
27645;DHT22;15054;57.152;-2.118;2022-07-06T13:54:02;23.70;99.90
27645;DHT22;15054;57.152;-2.118;2022-07-06T13:56:29;24.10;99.90
27645;DHT22;15054;57.152;-2.118;2022-07-06T13:59:02;24.20;99.90
27645;DHT22;15054;57.152;-2.118;2022-07-06T14:01:33;24.10;99.90
27645;DHT22;15054;57.152;-2.118;2022-07-06T14:04:01;24.20;99.90
27645;DHT22;15054;57.152;-2.118;2022-07-06T14:06:28;23.90;99.90
27645;DHT22;15054;57.152;-2.118;2022-07-06T14:08:55;23.90;99.90
27645;DHT22;15054;57.152;-2.118;2022-07-06T14:11:22;23.90;99.90
27645;DHT22;15054;57.152;-2.118;2022-07-06T14:13:50;23.60;99.90
27645;DHT22;15054;57.152;-2.118;2022-07-06T14:16:18;23.40;99.90
27645;DHT22;15054;57.152;-2.118;2022-07-06T14:18:45;23.10;99.90
27645;DHT22;15054;57.152;-2.118;2022-07-06T14:21:14;22.80;99.90
27645;DHT22;15054;57.152;-2.118;2022-07-06T14:23:42;22.50;99.90
27645;DHT22;15054;57.152;-2.118;2022-07-06T14:26:09;22.20;99.90
27645;DHT22;15054;57.152;-2.118;2022-07-06T14:28:37;22.10;99.90
27645;DHT22;15054;57.152;-2.118;2022-07-06T14:31:04;22.00;99.90
27645;DHT22;15054;57.152;-2.118;2022-07-06T14:33:32;21.90;99.90
27645;DHT22;15054;57.152;-2.118;2022-07-06T14:35:59;21.80;99.90
27645;DHT22;15054;57.152;-2.118;2022-07-06T14:38:28;21.60;99.90
27645;DHT22;15054;57.152;-2.118;2022-07-06T14:40:55;21.40;99.90
27645;DHT22;15054;57.152;-2.118;2022-07-06T14:43:22;21.30;99.90
27645;DHT22;15054;57.152;-2.118;2022-07-06T14:45:50;21.30;99.90
27645;DHT22;15054;57.152;-2.118;2022-07-06T14:48:17;21.20;99.90
27645;DHT22;15054;57.152;-2.118;2022-07-06T14:50:44;21.10;99.90
27645;DHT22;15054;57.152;-2.118;2022-07-06T14:53:11;21.00;99.90
27645;DHT22;15054;57.152;-2.118;2022-07-06T14:55:39;20.80;99.90
27645;DHT22;15054;57.152;-2.118;2022-07-06T14:58:07;20.70;99.90
27645;DHT22;15054;57.152;-2.118;2022-07-06T15:00:40;20.60;99.90
27645;DHT22;15054;57.152;-2.118;2022-07-06T15:03:11;20.60;99.90
27645;DHT22;15054;57.152;-2.118;2022-07-06T15:05:39;20.60;99.90
27645;DHT22;15054;57.152;-2.118;2022-07-06T15:08:06;20.40;99.90
27645;DHT22;15054;57.152;-2.118;2022-07-06T15:10:34;20.30;99.90
27645;DHT22;15054;57.152;-2.118;2022-07-06T15:13:01;20.10;99.90
27645;DHT22;15054;57.152;-2.118;2022-07-06T15:15:28;19.90;99.90
27645;DHT22;15054;57.152;-2.118;2022-07-06T15:18:15;19.70;99.90
27645;DHT22;15054;57.152;-2.118;2022-07-06T15:20:42;19.60;99.90
27645;DHT22;15054;57.152;-2.118;2022-07-06T15:23:10;19.60;99.90
27645;DHT22;15054;57.152;-2.118;2022-07-06T15:25:37;19.50;99.90
27645;DHT22;15054;57.152;-2.118;2022-07-06T15:28:05;19.40;99.90
27645;DHT22;15054;57.152;-2.118;2022-07-06T15:30:32;19.30;99.90
27645;DHT22;15054;57.152;-2.118;2022-07-06T15:33:00;19.40;99.90